Time;durP1;ratioP1;P1;durP2;ratioP2;P2;SDS_P1;SDS_P2;PMS_P1;PMS_P2;Temp;Humidity;BMP_temperature;BMP_pressure;BME280_temperature;BME280_humidity;BME280_pressure;Samples;Min_cycle;Max_cycle;Signal;HPM_P1;HPM_P2
2023/03/12 00:02:13;;;;;;;2.58;1.50;;;18.60;54.60;;;;;;10505421;28;20452;-24
2023/03/12 00:07:16;;;;;;;4.72;1.83;;;18.50;54.70;;;;;;10488128;28;20169;-24
2023/03/12 00:12:18;;;;;;;2.38;1.48;;;18.60;54.50;;;;;;10490851;28;20083;-25
2023/03/12 00:17:20;;;;;;;3.10;1.80;;;18.50;54.60;;;;;;10486377;28;20067;-25
2023/03/12 00:22:24;;;;;;;2.15;1.17;;;18.50;54.60;;;;;;10485010;28;20045;-24
2023/03/12 00:27:27;;;;;;;2.90;1.70;;;18.50;54.60;;;;;;10495794;28;20863;-25
2023/03/12 00:32:28;;;;;;;1.42;1.20;;;18.40;54.70;;;;;;10471217;28;20477;-24
2023/03/12 00:37:32;;;;;;;2.08;1.52;;;18.40;54.70;;;;;;10482519;28;20468;-24
2023/03/12 00:42:34;;;;;;;2.70;1.27;;;18.40;54.60;;;;;;10476368;28;20048;-25
2023/03/12 00:47:36;;;;;;;3.78;1.33;;;18.30;54.90;;;;;;10492506;28;20578;-26
2023/03/12 00:52:39;;;;;;;2.55;1.00;;;18.30;54.90;;;;;;10479149;28;20045;-25
2023/03/12 00:57:41;;;;;;;3.22;1.40;;;18.30;55.10;;;;;;10491408;28;20098;-24
2023/03/12 01:02:43;;;;;;;1.83;1.40;;;18.20;54.90;;;;;;10474918;28;20126;-24
2023/03/12 01:07:46;;;;;;;1.77;1.05;;;18.20;54.90;;;;;;10491245;28;20131;-23
2023/03/12 01:12:48;;;;;;;1.95;1.23;;;18.20;55.00;;;;;;10487023;28;20041;-25
2023/03/12 01:17:50;;;;;;;2.63;1.42;;;18.10;55.00;;;;;;10481976;28;20044;-27
2023/03/12 01:22:53;;;;;;;1.35;1.20;;;18.10;55.10;;;;;;10490595;28;20072;-26
2023/03/12 01:27:55;;;;;;;2.10;1.23;;;18.20;54.90;;;;;;10494610;28;20040;-25
2023/03/12 01:32:57;;;;;;;3.80;1.50;;;18.10;55.20;;;;;;10476206;28;20041;-25
2023/03/12 01:38:00;;;;;;;2.60;1.00;;;18.00;55.20;;;;;;10491625;28;20203;-25
2023/03/12 01:43:23;;;;;;;3.85;1.25;;;18.00;55.20;;;;;;10490266;28;20385;-26
2023/03/12 01:48:27;;;;;;;2.25;1.40;;;18.00;55.30;;;;;;10480573;28;20055;-25
2023/03/12 01:53:30;;;;;;;2.03;1.25;;;17.90;55.40;;;;;;10473572;28;20440;-25
2023/03/12 01:58:37;;;;;;;2.75;1.52;;;17.90;55.30;;;;;;10478842;28;20147;-24
2023/03/12 02:03:39;;;;;;;3.08;1.20;;;17.80;55.70;;;;;;10483169;28;20132;-23
2023/03/12 02:08:45;;;;;;;2.38;1.30;;;17.90;55.30;;;;;;10475796;28;20082;-25
2023/03/12 02:13:47;;;;;;;3.55;1.25;;;17.90;55.50;;;;;;10476221;28;20056;-25
2023/03/12 02:18:51;;;;;;;2.90;1.20;;;17.80;55.50;;;;;;10477876;28;20585;-25
2023/03/12 02:24:02;;;;;;;2.55;1.48;;;17.80;55.50;;;;;;10478306;28;20428;-25
2023/03/12 02:29:06;;;;;;;1.95;1.20;;;17.90;55.30;;;;;;10478511;28;20037;-25
2023/03/12 02:34:09;;;;;;;3.92;1.30;;;17.90;55.30;;;;;;10488457;28;20068;-25
2023/03/12 02:39:11;;;;;;;;;;;17.80;55.20;;;;;;10478874;28;20047;-25
2023/03/12 02:44:17;;;;;;;2.22;1.00;;;17.70;55.50;;;;;;10483240;28;20334;-25
2023/03/12 02:49:21;;;;;;;3.42;1.10;;;17.70;55.70;;;;;;10477563;28;20068;-25
2023/03/12 02:54:24;;;;;;;2.42;1.38;;;17.60;55.70;;;;;;10479169;28;20488;-24
2023/03/12 02:59:28;;;;;;;2.47;1.55;;;17.50;55.60;;;;;;10484107;28;20102;-26
2023/03/12 03:04:32;;;;;;;3.15;0.98;;;17.70;55.50;;;;;;10486140;28;20052;-26
2023/03/12 03:09:34;;;;;;;2.35;1.10;;;17.70;55.70;;;;;;10483402;28;20087;-25
2023/03/12 03:14:37;;;;;;;1.10;0.90;;;17.50;56.10;;;;;;10486106;28;20087;-25
2023/03/12 03:19:39;;;;;;;1.60;1.05;;;17.60;55.80;;;;;;10484342;28;20381;-25
2023/03/12 03:24:41;;;;;;;1.60;1.23;;;17.60;55.70;;;;;;10483838;28;20102;-25
2023/03/12 03:29:45;;;;;;;1.40;0.90;;;17.50;55.80;;;;;;10496066;28;20557;-25
2023/03/12 03:34:47;;;;;;;1.15;0.80;;;17.50;55.60;;;;;;10482922;28;20056;-25
2023/03/12 03:39:49;;;;;;;2.73;1.23;;;17.40;56.00;;;;;;10493313;28;20061;-25
2023/03/12 03:44:52;;;;;;;1.13;0.82;;;17.40;55.90;;;;;;10491397;28;20123;-25
2023/03/12 03:49:54;;;;;;;2.30;1.15;;;17.20;56.70;;;;;;10498729;28;20124;-26
2023/03/12 03:54:56;;;;;;;1.67;1.00;;;17.00;56.70;;;;;;10492865;28;20473;-24
2023/03/12 03:59:59;;;;;;;1.53;1.30;;;16.90;57.50;;;;;;10494793;28;20040;-25
2023/03/12 04:05:01;;;;;;;1.98;1.08;;;17.00;57.60;;;;;;10499905;28;20045;-24
2023/03/12 04:10:03;;;;;;;1.50;1.23;;;17.10;57.00;;;;;;10493629;28;20102;-26
2023/03/12 04:15:07;;;;;;;;;;;17.00;57.10;;;;;;10491751;28;20045;-25
2023/03/12 04:20:11;;;;;;;1.42;1.02;;;17.00;57.00;;;;;;10492286;28;20384;-25
2023/03/12 04:25:13;;;;;;;1.48;0.93;;;17.00;56.80;;;;;;10475343;28;20072;-25
2023/03/12 04:30:16;;;;;;;3.53;1.20;;;17.10;56.90;;;;;;10488100;28;20041;-26
2023/03/12 04:35:18;;;;;;;1.52;1.15;;;17.10;56.90;;;;;;10501670;28;20858;-25
2023/03/12 04:40:20;;;;;;;1.75;1.05;;;17.10;56.60;;;;;;10490876;28;20040;-24
2023/03/12 04:45:23;;;;;;;1.63;0.95;;;17.10;56.70;;;;;;10493538;28;20098;-23
2023/03/12 04:50:25;;;;;;;2.35;1.40;;;16.90;56.70;;;;;;10483831;28;20079;-25
2023/03/12 04:55:27;;;;;;;1.10;0.97;;;16.90;57.10;;;;;;10479762;28;20514;-25
2023/03/12 05:00:31;;;;;;;2.13;1.33;;;16.80;58.10;;;;;;10488351;28;20514;-26
2023/03/12 05:05:32;;;;;;;2.60;1.27;;;16.70;57.60;;;;;;10487187;28;20060;-25
2023/03/12 05:10:34;;;;;;;1.67;1.10;;;16.70;57.40;;;;;;10492508;28;20181;-26
2023/03/12 05:15:38;;;;;;;2.80;1.25;;;17.00;56.70;;;;;;10502161;28;20135;-25
2023/03/12 05:20:40;;;;;;;2.47;1.30;;;17.10;56.50;;;;;;10493463;28;20481;-25
2023/03/12 05:25:42;;;;;;;1.48;1.17;;;17.40;55.90;;;;;;10494057;28;20052;-25
2023/03/12 05:30:45;;;;;;;2.60;1.23;;;17.60;55.50;;;;;;10493014;28;20528;-24
2023/03/12 05:35:47;;;;;;;1.10;0.93;;;17.70;55.20;;;;;;10490464;28;20110;-24
2023/03/12 05:40:53;;;;;;;2.63;1.35;;;17.90;54.90;;;;;;10494450;28;20226;-25
2023/03/12 05:45:59;;;;;;;1.48;1.13;;;17.90;55.00;;;;;;10488019;28;20044;-23
2023/03/12 05:51:01;;;;;;;1.10;0.88;;;18.00;54.80;;;;;;10488685;28;20890;-26
2023/03/12 05:56:04;;;;;;;1.38;1.20;;;18.00;54.80;;;;;;10489352;28;20162;-25
2023/03/12 06:01:14;;;;;;;1.55;1.20;;;18.10;54.70;;;;;;10488827;28;20068;-25
2023/03/12 06:06:16;;;;;;;3.53;0.85;;;18.10;54.70;;;;;;10489749;28;20075;-25
2023/03/12 06:11:19;;;;;;;1.35;0.85;;;18.10;54.80;;;;;;10490637;28;20072;-25
2023/03/12 06:16:24;;;;;;;1.35;0.80;;;18.10;54.90;;;;;;10468949;28;20501;-27
2023/03/12 06:21:28;;;;;;;0.77;0.50;;;18.10;54.80;;;;;;10475834;28;20045;-28
2023/03/12 06:26:30;;;;;;;1.10;0.85;;;18.10;54.90;;;;;;10469213;28;20041;-25
2023/03/12 06:31:33;;;;;;;1.65;1.10;;;18.20;54.90;;;;;;10480560;28;20140;-28
2023/03/12 06:36:35;;;;;;;2.60;1.23;;;18.00;55.10;;;;;;10488999;28;20136;-26
2023/03/12 06:41:37;;;;;;;1.42;1.10;;;18.10;55.10;;;;;;10487385;28;20068;-26
2023/03/12 06:46:42;;;;;;;2.85;0.80;;;17.70;55.70;;;;;;10476798;28;20045;-26
2023/03/12 06:51:44;;;;;;;1.33;0.95;;;18.00;55.50;;;;;;10482571;28;20048;-25
2023/03/12 06:56:46;;;;;;;2.65;2.35;;;17.90;55.50;;;;;;10481113;28;20099;-25
2023/03/12 07:15:23;;;;;;;6.25;4.03;;;12.90;83.40;;;;;;10548865;27;20126;-26
2023/03/12 07:20:25;;;;;;;6.85;3.40;;;14.80;65.50;;;;;;10564729;28;20122;-24
2023/03/12 07:25:27;;;;;;;5.53;3.37;;;15.70;63.10;;;;;;10543398;28;20040;-25
2023/03/12 07:30:32;;;;;;;4.63;2.72;;;15.00;70.20;;;;;;10554099;28;20408;-25
2023/03/12 07:35:34;;;;;;;4.90;3.30;;;14.70;73.60;;;;;;10547540;28;20049;-25
2023/03/12 07:40:36;;;;;;;7.70;5.20;;;15.40;69.20;;;;;;10543461;28;20143;-25
2023/03/12 07:45:40;;;;;;;5.70;3.65;;;14.30;76.00;;;;;;10566557;28;20051;-25
2023/03/12 07:50:41;;;;;;;12.02;8.55;;;12.70;88.10;;;;;;10571731;28;20126;-26
2023/03/12 07:55:44;;;;;;;18.27;7.50;;;12.90;87.50;;;;;;10568167;28;20112;-24
2023/03/12 08:00:47;;;;;;;12.90;6.35;;;12.70;92.80;;;;;;10566626;28;20052;-25
2023/03/12 08:05:57;;;;;;;20.85;9.45;;;13.70;88.50;;;;;;10556659;28;20040;-26
2023/03/12 08:10:59;;;;;;;13.88;8.75;;;12.80;92.30;;;;;;10569116;28;20063;-25
2023/03/12 08:16:02;;;;;;;10.37;4.27;;;10.90;99.90;;;;;;10555352;28;20452;-25
2023/03/12 08:21:04;;;;;;;12.32;4.25;;;12.70;97.10;;;;;;10568764;28;20141;-25
2023/03/12 08:26:06;;;;;;;11.80;5.23;;;13.30;95.60;;;;;;10512454;28;20369;-26
2023/03/12 08:31:10;;;;;;;19.55;5.75;;;12.80;96.20;;;;;;10532576;28;21045;-27
2023/03/12 08:36:11;;;;;;;18.60;4.15;;;10.80;99.90;;;;;;10501856;28;20083;-25
2023/03/12 08:41:13;;;;;;;22.52;4.95;;;10.80;99.90;;;;;;10514487;28;20588;-25
2023/03/12 08:46:16;;;;;;;10.25;3.53;;;10.50;99.90;;;;;;10526644;28;20036;-23
2023/03/12 08:51:18;;;;;;;16.90;4.93;;;11.30;99.90;;;;;;10520483;28;20072;-24
2023/03/12 08:56:20;;;;;;;17.50;3.53;;;10.60;99.90;;;;;;10517477;28;20069;-26
2023/03/12 09:01:24;;;;;;;22.98;4.90;;;10.50;99.90;;;;;;10502115;28;20044;-24
2023/03/12 09:06:25;;;;;;;20.42;4.60;;;9.80;99.90;;;;;;10509017;28;20536;-25
2023/03/12 09:11:27;;;;;;;30.98;3.80;;;10.00;99.90;;;;;;10506270;28;20088;-26
2023/03/12 09:16:31;;;;;;;28.33;5.00;;;10.40;99.90;;;;;;10512104;28;20067;-27
2023/03/12 09:21:32;;;;;;;20.10;4.43;;;10.20;99.90;;;;;;10508823;28;20056;-25
2023/03/12 09:26:35;;;;;;;18.33;4.00;;;10.80;99.90;;;;;;10504643;28;20475;-25
2023/03/12 09:31:39;;;;;;;20.33;4.13;;;10.40;99.90;;;;;;10513036;28;20138;-27
2023/03/12 09:36:40;;;;;;;30.92;5.53;;;11.00;99.90;;;;;;10504856;28;20474;-25
2023/03/12 09:41:47;;;;;;;25.13;3.80;;;10.80;99.90;;;;;;10509106;28;20052;-25
2023/03/12 09:46:53;;;;;;;28.05;3.90;;;10.90;99.90;;;;;;10516530;28;20412;-24
2023/03/12 09:51:58;;;;;;;30.48;4.15;;;11.70;99.90;;;;;;10521260;28;20040;-25
2023/03/12 09:57:04;;;;;;;33.92;5.18;;;11.30;99.90;;;;;;10528205;28;20078;-24
2023/03/12 10:02:27;;;;;;;31.65;5.22;;;10.60;99.90;;;;;;10535544;28;20067;-24
2023/03/12 10:07:35;;;;;;;28.35;4.22;;;10.60;99.90;;;;;;10529469;28;20075;-26
2023/03/12 10:12:46;;;;;;;31.70;4.25;;;10.90;99.90;;;;;;10528584;28;20052;-25
2023/03/12 10:18:00;;;;;;;33.67;4.20;;;11.00;99.90;;;;;;10525526;28;20040;-25
2023/03/12 10:23:08;;;;;;;39.83;4.78;;;11.50;99.90;;;;;;10518449;28;20518;-24
2023/03/12 10:28:17;;;;;;;24.42;3.67;;;11.60;99.90;;;;;;10519780;28;20068;-23
2023/03/12 10:33:22;;;;;;;30.92;5.25;;;11.00;99.90;;;;;;10532785;28;20143;-24
2023/03/12 10:38:29;;;;;;;31.50;4.18;;;11.40;99.90;;;;;;10502698;28;20086;-26
2023/03/12 10:43:34;;;;;;;25.83;5.13;;;10.30;99.90;;;;;;10498853;28;20080;-24
2023/03/12 10:48:37;;;;;;;33.42;5.13;;;11.30;99.90;;;;;;10498553;28;20082;-25
2023/03/12 10:53:41;;;;;;;34.80;5.82;;;10.70;99.90;;;;;;10507000;28;20468;-25
2023/03/12 10:58:45;;;;;;;44.00;5.63;;;10.10;99.90;;;;;;10498372;28;20048;-24
2023/03/12 11:03:49;;;;;;;33.42;4.82;;;10.50;99.90;;;;;;10517014;28;20086;-25
2023/03/12 11:09:06;;;;;;;36.05;4.90;;;10.80;99.90;;;;;;10506888;28;20048;-24
2023/03/12 11:14:17;;;;;;;32.40;5.10;;;11.80;99.90;;;;;;10519898;28;20039;-23
2023/03/12 11:19:29;;;;;;;40.33;6.63;;;11.00;99.90;;;;;;10524045;28;20105;-24
2023/03/12 11:24:31;;;;;;;53.67;8.00;;;10.80;99.90;;;;;;10512888;28;20044;-25
2023/03/12 11:29:38;;;;;;;44.22;5.10;;;10.50;99.90;;;;;;10507993;28;20448;-26
2023/03/12 11:34:46;;;;;;;45.95;5.97;;;10.50;99.90;;;;;;10513628;28;20113;-25
2023/03/12 11:40:00;;;;;;;36.13;6.38;;;10.40;99.90;;;;;;10527902;28;20457;-25
2023/03/12 11:45:14;;;;;;;35.80;5.97;;;11.40;99.90;;;;;;10506765;28;20102;-24
2023/03/12 11:50:26;;;;;;;39.33;6.57;;;11.50;99.90;;;;;;10516448;28;20055;-25
2023/03/12 11:55:44;;;;;;;46.80;7.05;;;11.20;99.90;;;;;;10520385;28;20135;-24
2023/03/12 12:00:53;;;;;;;38.10;5.57;;;11.00;99.90;;;;;;10514727;28;20078;-25
2023/03/12 12:06:01;;;;;;;50.03;7.93;;;11.60;99.90;;;;;;10522044;28;20148;-27
2023/03/12 12:11:08;;;;;;;45.05;6.22;;;11.90;99.90;;;;;;10523001;28;20044;-24
2023/03/12 12:16:35;;;;;;;44.55;6.15;;;11.60;99.90;;;;;;10523727;28;20501;-24
2023/03/12 12:21:52;;;;;;;38.28;6.15;;;12.00;99.90;;;;;;10530570;28;20040;-24
2023/03/12 12:27:02;;;;;;;25.13;4.00;;;11.70;99.90;;;;;;10521452;28;20456;-25
2023/03/12 12:32:10;;;;;;;39.42;4.70;;;12.70;99.90;;;;;;10539617;28;20125;-26
2023/03/12 12:37:24;;;;;;;37.55;6.22;;;13.20;99.90;;;;;;10539238;28;20409;-28
2023/03/12 12:42:31;;;;;;;41.55;5.25;;;12.80;99.90;;;;;;10535601;28;20119;-25
2023/03/12 12:47:41;;;;;;;30.33;4.15;;;12.50;99.90;;;;;;10538249;28;20047;-25
2023/03/12 12:52:46;;;;;;;33.58;5.80;;;13.40;99.90;;;;;;10528523;28;20124;-25
2023/03/12 12:57:54;;;;;;;38.53;5.00;;;11.70;99.90;;;;;;10536621;28;20044;-24
2023/03/12 13:02:57;;;;;;;47.15;6.78;;;13.10;99.90;;;;;;10537448;28;20105;-25
2023/03/12 13:08:00;;;;;;;29.42;6.50;;;11.60;99.90;;;;;;10538255;28;20132;-26
2023/03/12 13:13:09;;;;;;;46.55;5.43;;;11.90;99.90;;;;;;10535934;28;20145;-26
2023/03/12 13:18:27;;;;;;;44.20;7.97;;;12.20;99.90;;;;;;10534292;28;20496;-25
2023/03/12 13:23:37;;;;;;;48.88;7.57;;;11.80;99.90;;;;;;10529335;28;20036;-24
2023/03/12 13:28:59;;;;;;;49.63;6.63;;;12.60;99.90;;;;;;10531706;28;20056;-23
2023/03/12 13:34:28;;;;;;;37.05;5.35;;;12.50;99.90;;;;;;10536509;28;20071;-24
2023/03/12 13:39:33;;;;;;;53.17;8.10;;;13.80;99.90;;;;;;10529180;28;20172;-27
2023/03/12 13:44:38;;;;;;;25.38;4.85;;;12.70;99.90;;;;;;10534502;28;20051;-23
2023/03/12 13:49:43;;;;;;;44.40;6.53;;;14.50;99.90;;;;;;10533152;28;20110;-27
2023/03/12 13:54:49;;;;;;;34.20;7.05;;;14.10;99.90;;;;;;10532981;28;20156;-26
2023/03/12 13:59:52;;;;;;;44.58;6.55;;;13.60;99.90;;;;;;10532402;28;20064;-26
2023/03/12 14:05:01;;;;;;;50.65;7.47;;;14.70;98.70;;;;;;10533110;28;20077;-26
2023/03/12 14:10:18;;;;;;;44.55;6.47;;;14.30;98.20;;;;;;10529205;28;20044;-26
2023/03/12 14:15:29;;;;;;;23.02;5.15;;;13.90;99.90;;;;;;10519800;28;20525;-25
2023/03/12 14:20:31;;;;;;;42.47;8.40;;;13.90;99.90;;;;;;10531121;28;20416;-27
2023/03/12 14:25:38;;;;;;;35.17;4.77;;;12.90;99.90;;;;;;10534698;28;20139;-25
2023/03/12 14:30:47;;;;;;;45.20;6.60;;;13.10;99.90;;;;;;10531041;28;20097;-25
2023/03/12 14:35:55;;;;;;;37.08;4.93;;;13.60;99.90;;;;;;10532569;28;20424;-24
2023/03/12 14:41:03;;;;;;;32.63;6.72;;;13.90;99.90;;;;;;10532473;28;20071;-27
2023/03/12 14:46:13;;;;;;;28.90;4.68;;;14.20;99.90;;;;;;10534503;28;20093;-25
2023/03/12 14:51:20;;;;;;;28.77;4.57;;;13.90;99.90;;;;;;10535548;28;20040;-24
2023/03/12 14:56:28;;;;;;;40.85;6.88;;;13.60;99.90;;;;;;10532935;28;20063;-25
2023/03/12 15:01:32;;;;;;;63.85;9.40;;;14.20;99.90;;;;;;10538223;28;20032;-25
2023/03/12 15:06:39;;;;;;;49.58;8.13;;;14.20;98.10;;;;;;10528082;28;20424;-27
2023/03/12 15:11:44;;;;;;;26.35;4.15;;;13.60;98.20;;;;;;10524157;28;20159;-25
2023/03/12 15:16:46;;;;;;;36.22;5.53;;;13.80;99.90;;;;;;10529216;28;20060;-24
2023/03/12 15:21:48;;;;;;;41.00;6.60;;;13.70;99.90;;;;;;10529361;28;20044;-26
2023/03/12 15:26:52;;;;;;;45.20;6.18;;;12.70;99.90;;;;;;10534955;28;20430;-25
2023/03/12 15:31:56;;;;;;;37.15;5.78;;;12.70;99.90;;;;;;10526287;28;20074;-25
2023/03/12 15:36:58;;;;;;;46.20;5.32;;;13.20;99.90;;;;;;10529554;28;20097;-25
2023/03/12 15:42:07;;;;;;;66.50;7.63;;;13.00;99.90;;;;;;10534554;28;20050;-26
2023/03/12 15:47:12;;;;;;;55.45;7.55;;;11.60;99.90;;;;;;10537918;28;20040;-26
2023/03/12 15:52:30;;;;;;;55.20;8.13;;;11.00;99.90;;;;;;10524133;28;20033;-25
2023/03/12 15:57:34;;;;;;;46.08;6.38;;;11.30;99.90;;;;;;10522727;28;20076;-26
2023/03/12 16:02:37;;;;;;;53.95;6.60;;;11.90;99.90;;;;;;10533842;28;20048;-26
2023/03/12 16:07:39;;;;;;;53.00;7.22;;;12.00;99.90;;;;;;10539056;28;20035;-24
2023/03/12 16:12:44;;;;;;;69.43;9.05;;;12.10;99.90;;;;;;10536990;28;20110;-25
2023/03/12 16:17:46;;;;;;;53.28;6.55;;;11.90;99.90;;;;;;10538914;28;20452;-25
2023/03/12 16:22:48;;;;;;;80.18;9.07;;;11.70;99.90;;;;;;10518127;28;20135;-26
2023/03/12 16:27:54;;;;;;;63.17;8.70;;;10.30;99.90;;;;;;10530201;28;20159;-25
2023/03/12 16:32:57;;;;;;;49.55;7.53;;;10.90;99.90;;;;;;10527821;28;20079;-25
2023/03/12 16:37:59;;;;;;;66.65;7.20;;;11.30;99.90;;;;;;10523227;28;20086;-25
2023/03/12 16:43:05;;;;;;;70.80;8.00;;;11.70;99.90;;;;;;10523717;28;20126;-25
2023/03/12 16:48:07;;;;;;;45.97;6.03;;;11.20;99.90;;;;;;10514754;28;20072;-26
2023/03/12 16:53:11;;;;;;;32.65;5.13;;;11.20;99.90;;;;;;10532177;28;20947;-25
2023/03/12 16:58:16;;;;;;;42.58;6.28;;;11.60;99.90;;;;;;10533846;28;20449;-28
2023/03/12 17:03:22;;;;;;;39.15;4.47;;;10.90;99.90;;;;;;10519826;28;20129;-25
2023/03/12 17:08:24;;;;;;;35.03;4.85;;;11.50;99.90;;;;;;10519098;28;20123;-25
2023/03/12 17:13:28;;;;;;;29.55;4.80;;;11.50;99.90;;;;;;10525195;28;20081;-26
2023/03/12 17:18:30;;;;;;;34.38;4.18;;;11.60;99.90;;;;;;10516205;28;20122;-26
2023/03/12 17:23:32;;;;;;;19.80;3.00;;;10.60;99.90;;;;;;10521340;28;20043;-26
2023/03/12 17:28:36;;;;;;;21.42;3.42;;;11.60;99.90;;;;;;10511613;28;20494;-23
2023/03/12 17:33:38;;;;;;;17.50;2.95;;;11.00;99.90;;;;;;10522993;28;20068;-25
2023/03/12 17:38:39;;;;;;;25.85;3.78;;;12.00;99.90;;;;;;10513986;28;20461;-25
2023/03/12 17:43:44;;;;;;;25.48;4.63;;;10.30;99.90;;;;;;10520680;28;20070;-24
2023/03/12 17:48:46;;;;;;;40.10;5.43;;;10.70;99.90;;;;;;10528999;28;20039;-25
2023/03/12 17:53:48;;;;;;;41.03;5.90;;;10.10;99.90;;;;;;10524343;28;20434;-24
2023/03/12 17:58:52;;;;;;;41.70;4.73;;;10.40;99.90;;;;;;10523937;28;20533;-25
2023/03/12 18:03:54;;;;;;;30.50;3.80;;;10.40;99.90;;;;;;10523972;28;20439;-23
2023/03/12 18:08:56;;;;;;;27.35;4.85;;;11.10;99.90;;;;;;10527080;28;20036;-27
2023/03/12 18:13:59;;;;;;;38.40;4.23;;;10.30;99.90;;;;;;10538246;28;20152;-25
2023/03/12 18:19:01;;;;;;;30.80;4.57;;;11.00;99.90;;;;;;10517405;28;20055;-26
2023/03/12 18:24:04;;;;;;;18.17;2.90;;;11.40;99.90;;;;;;10543390;28;20050;-25
2023/03/12 18:29:07;;;;;;;15.38;2.92;;;11.50;99.90;;;;;;10525041;28;20495;-28
2023/03/12 18:34:09;;;;;;;27.55;4.82;;;11.20;99.90;;;;;;10501227;28;20113;-26
2023/03/12 18:39:11;;;;;;;23.60;3.40;;;11.20;99.90;;;;;;10515260;28;20044;-26
2023/03/12 18:44:14;;;;;;;30.65;4.07;;;11.80;99.90;;;;;;10515459;28;20080;-28
2023/03/12 18:49:16;;;;;;;18.48;2.80;;;10.70;99.90;;;;;;10511620;28;20056;-27
2023/03/12 18:54:18;;;;;;;27.80;3.53;;;10.30;99.90;;;;;;10520013;28;20067;-28
2023/03/12 18:59:21;;;;;;;31.90;5.07;;;10.00;99.90;;;;;;10515362;28;20118;-29
2023/03/12 19:04:24;;;;;;;29.42;3.83;;;10.10;99.90;;;;;;10529574;28;20044;-26
2023/03/12 19:09:26;;;;;;;39.55;4.40;;;10.90;99.90;;;;;;10516158;28;20032;-26
2023/03/12 19:14:30;;;;;;;27.00;4.97;;;10.80;99.90;;;;;;10511980;28;20052;-25
2023/03/12 19:19:32;;;;;;;27.88;4.03;;;11.40;99.90;;;;;;10520626;28;20086;-25
2023/03/12 19:24:34;;;;;;;33.20;4.13;;;10.80;99.90;;;;;;10513996;28;20510;-28
2023/03/12 19:29:37;;;;;;;20.08;3.65;;;10.30;99.90;;;;;;10511087;28;20044;-24
2023/03/12 19:34:39;;;;;;;30.08;3.00;;;10.30;99.90;;;;;;10511618;28;20643;-25
2023/03/12 19:39:41;;;;;;;38.47;4.47;;;10.60;99.90;;;;;;10522979;28;20052;-25
2023/03/12 19:44:44;;;;;;;29.10;5.28;;;11.10;99.90;;;;;;10518659;28;20153;-25
2023/03/12 19:49:46;;;;;;;18.55;2.83;;;11.00;99.90;;;;;;10519558;28;20044;-25
2023/03/12 19:54:48;;;;;;;28.00;4.43;;;11.50;99.90;;;;;;10505848;28;20051;-26
2023/03/12 19:59:52;;;;;;;28.37;4.00;;;11.00;99.90;;;;;;10524775;28;20040;-26
2023/03/12 20:04:56;;;;;;;32.35;4.35;;;10.80;99.90;;;;;;10515201;28;20044;-26
2023/03/12 20:09:59;;;;;;;26.17;4.47;;;11.60;99.90;;;;;;10518607;28;20079;-26
2023/03/12 20:15:02;;;;;;;25.13;3.78;;;12.50;99.90;;;;;;10517806;28;20435;-26
2023/03/12 20:20:06;;;;;;;16.27;3.30;;;12.10;99.90;;;;;;10518606;28;20052;-25
2023/03/12 20:25:09;;;;;;;8.00;1.85;;;14.10;99.90;;;;;;10528923;28;20051;-26
2023/03/12 20:30:14;;;;;;;23.13;4.60;;;14.40;99.90;;;;;;10523740;28;20040;-25
2023/03/12 20:35:16;;;;;;;22.08;3.92;;;14.70;99.90;;;;;;10529779;28;20051;-23
2023/03/12 20:40:18;;;;;;;14.93;3.30;;;13.40;99.90;;;;;;10524626;28;20072;-24
2023/03/12 20:45:22;;;;;;;11.63;2.83;;;13.80;99.90;;;;;;10509969;28;20087;-26
2023/03/12 20:50:23;;;;;;;20.83;3.22;;;13.90;99.90;;;;;;10520556;28;20681;-26
2023/03/12 20:55:25;;;;;;;18.07;3.30;;;13.40;99.90;;;;;;10521977;28;20047;-25
2023/03/12 21:00:29;;;;;;;23.03;3.23;;;13.70;99.90;;;;;;10525335;28;20460;-24
2023/03/12 21:05:31;;;;;;;16.42;3.15;;;14.20;99.90;;;;;;10529769;28;20071;-26
2023/03/12 21:10:35;;;;;;;15.90;3.13;;;13.60;99.90;;;;;;10522299;28;20449;-26
2023/03/12 21:15:38;;;;;;;21.42;3.33;;;14.80;99.90;;;;;;10519027;28;20124;-26
2023/03/12 21:20:41;;;;;;;21.85;3.67;;;14.30;99.90;;;;;;10512640;28;20395;-24
2023/03/12 21:25:43;;;;;;;15.60;2.05;;;14.80;98.60;;;;;;10514855;28;20036;-26
2023/03/12 21:30:46;;;;;;;9.38;2.35;;;15.70;96.70;;;;;;10519948;28;20048;-27
2023/03/12 21:35:48;;;;;;;8.15;1.98;;;16.20;95.10;;;;;;10520848;28;20475;-26
2023/03/12 21:40:53;;;;;;;10.10;1.77;;;17.40;87.90;;;;;;10527823;28;20063;-26
2023/03/12 21:45:56;;;;;;;8.40;1.75;;;17.00;90.80;;;;;;10514848;28;20131;-27
2023/03/12 21:51:01;;;;;;;14.48;2.75;;;17.60;85.30;;;;;;10533609;28;20043;-27
2023/03/12 21:56:05;;;;;;;20.00;3.97;;;17.40;87.00;;;;;;10516024;28;20135;-27
2023/03/12 22:01:10;;;;;;;15.70;2.83;;;17.60;84.40;;;;;;10528769;28;20040;-30
2023/03/12 22:06:13;;;;;;;9.15;1.70;;;17.90;81.70;;;;;;10519043;28;20102;-28
2023/03/12 22:11:16;;;;;;;8.15;2.13;;;18.20;80.10;;;;;;10524367;28;20076;-28
2023/03/12 22:16:20;;;;;;;7.68;2.33;;;18.10;80.70;;;;;;10532831;28;20126;-23
2023/03/12 22:21:23;;;;;;;19.80;2.30;;;18.00;80.60;;;;;;10533049;28;20075;-26
2023/03/12 22:26:25;;;;;;;11.27;1.48;;;17.40;87.10;;;;;;10511940;28;20097;-30
2023/03/12 22:31:29;;;;;;;10.00;2.00;;;17.80;82.20;;;;;;10531650;28;20181;-27
2023/03/12 22:36:32;;;;;;;8.80;2.17;;;17.70;84.00;;;;;;10523278;28;20070;-27
2023/03/12 22:41:34;;;;;;;;;;;17.70;83.10;;;;;;10527300;28;20043;-26
2023/03/12 22:46:37;;;;;;;10.48;2.70;;;17.50;83.70;;;;;;10507351;28;20063;-29
2023/03/12 22:51:39;;;;;;;13.50;2.38;;;18.00;79.50;;;;;;10516735;28;20094;-28
2023/03/12 22:56:41;;;;;;;12.50;1.88;;;18.10;79.00;;;;;;10520468;28;20048;-28
2023/03/12 23:01:44;;;;;;;8.53;1.87;;;17.80;81.20;;;;;;10517812;28;20555;-28
2023/03/12 23:06:46;;;;;;;8.82;2.60;;;17.70;83.10;;;;;;10520838;28;20578;-28
2023/03/12 23:11:47;;;;;;;8.43;2.60;;;17.90;79.80;;;;;;10529662;28;20044;-29
2023/03/12 23:16:51;;;;;;;12.75;2.17;;;17.70;81.40;;;;;;10528610;28;20164;-28
2023/03/12 23:21:53;;;;;;;10.38;2.35;;;17.60;82.40;;;;;;10516187;28;20036;-26
2023/03/12 23:26:56;;;;;;;11.93;2.47;;;17.50;82.80;;;;;;10531586;28;20562;-26
2023/03/12 23:32:00;;;;;;;13.63;3.55;;;16.80;88.60;;;;;;10515909;28;20048;-27
2023/03/12 23:37:02;;;;;;;11.23;2.38;;;16.10;92.90;;;;;;10527621;28;20500;-28
2023/03/12 23:42:04;;;;;;;14.40;2.50;;;16.80;90.40;;;;;;10504478;28;20059;-26
2023/03/12 23:47:07;;;;;;;7.63;1.98;;;17.20;86.20;;;;;;10506810;28;20071;-26
2023/03/12 23:52:09;;;;;;;14.73;2.72;;;16.50;92.00;;;;;;10505503;28;20056;-27
2023/03/12 23:57:11;;;;;;;4.67;1.83;;;16.50;91.80;;;;;;10535093;28;20131;-26
